sensor_id;sensor_type;location;lat;lon;timestamp;pressure;altitude;pressure_sealevel;temperature;humidity
10460;BME280;54412;51.206;6.888;2023-02-12T00:01:14;103089.69;;;8.79;85.92
10460;BME280;54412;51.206;6.888;2023-02-12T00:03:40;103079.09;;;8.91;85.70
10460;BME280;54412;51.206;6.888;2023-02-12T00:06:08;103073.84;;;8.90;85.47
10460;BME280;54412;51.206;6.888;2023-02-12T00:08:35;103078.13;;;9.09;84.61
10460;BME280;54412;51.206;6.888;2023-02-12T00:11:13;103072.97;;;8.86;85.30
10460;BME280;54412;51.206;6.888;2023-02-12T00:13:40;103077.41;;;8.75;85.85
10460;BME280;54412;51.206;6.888;2023-02-12T00:16:13;103074.78;;;8.68;86.22
10460;BME280;54412;51.206;6.888;2023-02-12T00:18:38;103072.16;;;8.68;86.58
10460;BME280;54412;51.206;6.888;2023-02-12T00:21:05;103077.47;;;8.63;86.79
10460;BME280;54412;51.206;6.888;2023-02-12T00:23:34;103068.66;;;8.67;86.57
10460;BME280;54412;51.206;6.888;2023-02-12T00:26:04;103079.16;;;8.79;86.32
10460;BME280;54412;51.206;6.888;2023-02-12T00:28:30;103071.31;;;8.69;86.51
10460;BME280;54412;51.206;6.888;2023-02-12T00:30:55;103076.59;;;8.61;87.10
10460;BME280;54412;51.206;6.888;2023-02-12T00:33:21;103065.19;;;8.61;86.86
10460;BME280;54412;51.206;6.888;2023-02-12T00:35:55;103074.81;;;8.60;86.64
10460;BME280;54412;51.206;6.888;2023-02-12T00:38:21;103076.50;;;8.87;86.45
10460;BME280;54412;51.206;6.888;2023-02-12T00:40:47;103069.41;;;8.98;85.09
10460;BME280;54412;51.206;6.888;2023-02-12T00:43:12;103073.78;;;9.02;84.38
10460;BME280;54412;51.206;6.888;2023-02-12T00:45:38;103080.97;;;8.65;85.87
10460;BME280;54412;51.206;6.888;2023-02-12T00:48:04;103073.88;;;8.79;86.19
10460;BME280;54412;51.206;6.888;2023-02-12T00:50:30;103074.81;;;8.63;86.47
10460;BME280;54412;51.206;6.888;2023-02-12T00:52:55;103080.09;;;8.59;86.78
10460;BME280;54412;51.206;6.888;2023-02-12T00:55:21;103076.59;;;8.61;86.50
10460;BME280;54412;51.206;6.888;2023-02-12T00:57:47;103076.53;;;8.78;86.28
10460;BME280;54412;51.206;6.888;2023-02-12T01:00:14;103072.94;;;8.91;85.48
10460;BME280;54412;51.206;6.888;2023-02-12T01:02:40;103069.50;;;8.78;85.82
10460;BME280;54412;51.206;6.888;2023-02-12T01:05:07;103079.19;;;8.70;86.11
10460;BME280;54412;51.206;6.888;2023-02-12T01:07:32;103076.38;;;9.05;84.36
10460;BME280;54412;51.206;6.888;2023-02-12T01:09:58;103076.47;;;8.90;85.01
10460;BME280;54412;51.206;6.888;2023-02-12T01:12:24;103068.63;;;8.75;85.75
10460;BME280;54412;51.206;6.888;2023-02-12T01:14:50;103066.91;;;8.72;85.83
10460;BME280;54412;51.206;6.888;2023-02-12T01:17:15;103070.38;;;8.73;86.05
10460;BME280;54412;51.206;6.888;2023-02-12T01:19:41;103071.25;;;8.79;85.99
10460;BME280;54412;51.206;6.888;2023-02-12T01:22:07;103072.09;;;8.87;85.30
10460;BME280;54412;51.206;6.888;2023-02-12T01:24:32;103061.59;;;8.80;85.80
10460;BME280;54412;51.206;6.888;2023-02-12T01:26:58;103064.22;;;8.78;86.38
10460;BME280;54412;51.206;6.888;2023-02-12T01:29:23;103054.53;;;8.94;85.23
10460;BME280;54412;51.206;6.888;2023-02-12T01:31:49;103057.25;;;8.76;85.33
10460;BME280;54412;51.206;6.888;2023-02-12T01:34:15;103058.94;;;8.84;85.08
10460;BME280;54412;51.206;6.888;2023-02-12T01:36:40;103054.66;;;8.62;86.24
10460;BME280;54412;51.206;6.888;2023-02-12T01:39:06;103065.13;;;8.79;85.75
10460;BME280;54412;51.206;6.888;2023-02-12T01:41:38;103063.38;;;8.72;85.52
10460;BME280;54412;51.206;6.888;2023-02-12T01:44:27;103062.50;;;8.73;85.07
10460;BME280;54412;51.206;6.888;2023-02-12T01:47:02;103055.56;;;8.54;86.21
10460;BME280;54412;51.206;6.888;2023-02-12T01:49:39;103051.16;;;8.59;86.01
10460;BME280;54412;51.206;6.888;2023-02-12T01:52:26;103058.19;;;8.49;86.52
10460;BME280;54412;51.206;6.888;2023-02-12T01:54:55;103055.59;;;8.44;86.74
10460;BME280;54412;51.206;6.888;2023-02-12T01:57:25;103045.94;;;8.45;87.03
10460;BME280;54412;51.206;6.888;2023-02-12T01:59:55;103056.47;;;8.43;86.85
10460;BME280;54412;51.206;6.888;2023-02-12T02:02:23;103054.72;;;8.39;86.16
10460;BME280;54412;51.206;6.888;2023-02-12T02:05:00;103063.47;;;8.52;86.03
10460;BME280;54412;51.206;6.888;2023-02-12T02:07:28;103051.19;;;8.50;86.22
10460;BME280;54412;51.206;6.888;2023-02-12T02:09:55;103059.09;;;8.43;86.67
10460;BME280;54412;51.206;6.888;2023-02-12T02:12:22;103057.25;;;8.70;85.80
10460;BME280;54412;51.206;6.888;2023-02-12T02:15:08;103064.34;;;8.54;86.04
10460;BME280;54412;51.206;6.888;2023-02-12T02:17:51;103053.84;;;8.43;86.61
10460;BME280;54412;51.206;6.888;2023-02-12T02:23:58;103053.81;;;8.50;86.21
10460;BME280;54412;51.206;6.888;2023-02-12T02:30:09;103061.75;;;8.30;87.95
10460;BME280;54412;51.206;6.888;2023-02-12T02:35:20;103046.78;;;8.59;86.31
10460;BME280;54412;51.206;6.888;2023-02-12T02:38:23;103044.16;;;8.58;86.53
10460;BME280;54412;51.206;6.888;2023-02-12T02:41:05;103049.41;;;8.58;86.20
10460;BME280;54412;51.206;6.888;2023-02-12T02:43:43;103040.72;;;8.34;86.97
10460;BME280;54412;51.206;6.888;2023-02-12T02:46:26;103042.38;;;8.58;86.28
10460;BME280;54412;51.206;6.888;2023-02-12T02:49:10;103042.47;;;8.40;87.03
10460;BME280;54412;51.206;6.888;2023-02-12T02:51:44;103051.22;;;8.39;87.32
10460;BME280;54412;51.206;6.888;2023-02-12T02:54:20;103045.88;;;8.63;86.49
10460;BME280;54412;51.206;6.888;2023-02-12T02:56:54;103044.09;;;8.70;85.89
10460;BME280;54412;51.206;6.888;2023-02-12T02:59:28;103043.22;;;8.74;85.33
10460;BME280;54412;51.206;6.888;2023-02-12T03:02:17;103049.34;;;8.73;85.09
10460;BME280;54412;51.206;6.888;2023-02-12T03:04:57;103046.69;;;8.73;84.85
10460;BME280;54412;51.206;6.888;2023-02-12T03:07:31;103050.25;;;8.63;85.96
10460;BME280;54412;51.206;6.888;2023-02-12T03:10:11;103044.97;;;8.70;85.37
10460;BME280;54412;51.206;6.888;2023-02-12T03:12:51;103048.53;;;8.57;86.19
10460;BME280;54412;51.206;6.888;2023-02-12T03:15:33;103045.84;;;8.74;85.53
10460;BME280;54412;51.206;6.888;2023-02-12T03:18:03;103046.75;;;8.64;86.04
10460;BME280;54412;51.206;6.888;2023-02-12T03:20:43;103049.41;;;8.61;85.75
10460;BME280;54412;51.206;6.888;2023-02-12T03:23:21;103045.88;;;8.66;85.60
10460;BME280;54412;51.206;6.888;2023-02-12T03:26:04;103043.22;;;8.68;85.90
10460;BME280;54412;51.206;6.888;2023-02-12T03:28:34;103041.44;;;8.73;86.02
10460;BME280;54412;51.206;6.888;2023-02-12T03:36:48;103035.38;;;8.51;86.02
10460;BME280;54412;51.206;6.888;2023-02-12T03:39:36;103033.63;;;8.58;86.03
10460;BME280;54412;51.206;6.888;2023-02-12T03:45:37;103045.78;;;8.80;84.73
10460;BME280;54412;51.206;6.888;2023-02-12T03:48:13;103047.63;;;8.69;84.47
10460;BME280;54412;51.206;6.888;2023-02-12T03:50:55;103039.75;;;8.61;85.18
10460;BME280;54412;51.206;6.888;2023-02-12T03:53:24;103040.56;;;8.74;84.80
10460;BME280;54412;51.206;6.888;2023-02-12T03:55:58;103034.47;;;8.69;85.21
10460;BME280;54412;51.206;6.888;2023-02-12T03:58:28;103033.63;;;8.55;86.00
10460;BME280;54412;51.206;6.888;2023-02-12T04:00:57;103036.31;;;8.42;86.62
10460;BME280;54412;51.206;6.888;2023-02-12T04:03:24;103038.88;;;8.55;86.33
10460;BME280;54412;51.206;6.888;2023-02-12T04:05:50;103042.47;;;8.41;86.33
10460;BME280;54412;51.206;6.888;2023-02-12T04:08:16;103046.78;;;8.59;86.14
10460;BME280;54412;51.206;6.888;2023-02-12T04:11:10;103042.41;;;8.49;85.91
10460;BME280;54412;51.206;6.888;2023-02-12T04:16:40;103051.16;;;8.56;85.59
10460;BME280;54412;51.206;6.888;2023-02-12T04:19:12;103049.44;;;8.47;85.82
10460;BME280;54412;51.206;6.888;2023-02-12T04:22:14;103055.56;;;8.46;85.89
10460;BME280;54412;51.206;6.888;2023-02-12T04:24:49;103054.66;;;8.59;86.08
10460;BME280;54412;51.206;6.888;2023-02-12T04:30:08;103066.03;;;8.66;85.34
10460;BME280;54412;51.206;6.888;2023-02-12T04:32:54;103070.47;;;8.52;86.03
10460;BME280;54412;51.206;6.888;2023-02-12T04:40:36;103072.22;;;8.50;85.98
10460;BME280;54412;51.206;6.888;2023-02-12T04:43:03;103075.69;;;8.61;85.79
10460;BME280;54412;51.206;6.888;2023-02-12T04:45:32;103073.91;;;8.67;85.50
10460;BME280;54412;51.206;6.888;2023-02-12T04:47:59;103078.31;;;8.64;85.62
10460;BME280;54412;51.206;6.888;2023-02-12T04:50:26;103081.81;;;8.72;85.67
10460;BME280;54412;51.206;6.888;2023-02-12T04:52:55;103080.88;;;8.80;85.41
10460;BME280;54412;51.206;6.888;2023-02-12T04:55:21;103076.56;;;8.58;85.42
10460;BME280;54412;51.206;6.888;2023-02-12T04:57:46;103076.63;;;8.52;85.87
10460;BME280;54412;51.206;6.888;2023-02-12T05:00:13;103071.34;;;8.49;86.07
10460;BME280;54412;51.206;6.888;2023-02-12T05:02:40;103074.88;;;8.39;86.50
10460;BME280;54412;51.206;6.888;2023-02-12T05:05:06;103080.09;;;8.57;86.53
10460;BME280;54412;51.206;6.888;2023-02-12T05:07:31;103073.97;;;8.61;85.91
10460;BME280;54412;51.206;6.888;2023-02-12T05:09:57;103084.38;;;8.85;84.58
10460;BME280;54412;51.206;6.888;2023-02-12T05:12:22;103079.16;;;8.73;85.09
10460;BME280;54412;51.206;6.888;2023-02-12T05:14:48;103075.69;;;8.68;84.87
10460;BME280;54412;51.206;6.888;2023-02-12T05:17:14;103076.56;;;8.63;85.16
10460;BME280;54412;51.206;6.888;2023-02-12T05:19:39;103081.00;;;8.56;85.46
10460;BME280;54412;51.206;6.888;2023-02-12T05:22:05;103081.88;;;8.48;86.14
10460;BME280;54412;51.206;6.888;2023-02-12T05:24:31;103087.13;;;8.48;85.64
10460;BME280;54412;51.206;6.888;2023-02-12T05:26:57;103087.16;;;8.44;86.46
10460;BME280;54412;51.206;6.888;2023-02-12T05:29:22;103083.63;;;8.56;86.14
10460;BME280;54412;51.206;6.888;2023-02-12T05:31:48;103080.06;;;8.66;85.61
10460;BME280;54412;51.206;6.888;2023-02-12T05:34:14;103087.16;;;8.51;85.78
10460;BME280;54412;51.206;6.888;2023-02-12T05:36:40;103084.47;;;8.57;85.88
10460;BME280;54412;51.206;6.888;2023-02-12T05:39:06;103087.06;;;8.66;85.78
10460;BME280;54412;51.206;6.888;2023-02-12T05:41:33;103090.56;;;8.81;84.58
10460;BME280;54412;51.206;6.888;2023-02-12T05:44:04;103087.91;;;8.77;84.70
10460;BME280;54412;51.206;6.888;2023-02-12T05:46:31;103091.50;;;8.65;84.79
10460;BME280;54412;51.206;6.888;2023-02-12T05:48:57;103104.59;;;8.71;84.64
10460;BME280;54412;51.206;6.888;2023-02-12T05:51:26;103099.34;;;8.70;84.91
10460;BME280;54412;51.206;6.888;2023-02-12T05:54:00;103101.06;;;8.78;84.69
10460;BME280;54412;51.206;6.888;2023-02-12T05:56:34;103101.13;;;8.66;85.11
10460;BME280;54412;51.206;6.888;2023-02-12T05:59:07;103107.28;;;8.52;85.36
10460;BME280;54412;51.206;6.888;2023-02-12T06:01:41;103103.81;;;8.45;86.47
10460;BME280;54412;51.206;6.888;2023-02-12T06:04:15;103100.22;;;8.78;85.38
10460;BME280;54412;51.206;6.888;2023-02-12T06:06:42;103099.38;;;8.59;85.50
10460;BME280;54412;51.206;6.888;2023-02-12T06:09:12;103102.88;;;8.63;85.92
10460;BME280;54412;51.206;6.888;2023-02-12T06:11:39;103110.75;;;8.66;85.80
10460;BME280;54412;51.206;6.888;2023-02-12T06:14:08;103110.75;;;8.64;85.61
10460;BME280;54412;51.206;6.888;2023-02-12T06:16:35;103103.75;;;8.68;85.51
10460;BME280;54412;51.206;6.888;2023-02-12T06:19:03;103102.03;;;8.58;85.63
10460;BME280;54412;51.206;6.888;2023-02-12T06:21:30;103098.53;;;8.62;85.70
10460;BME280;54412;51.206;6.888;2023-02-12T06:23:56;103096.75;;;8.59;85.54
10460;BME280;54412;51.206;6.888;2023-02-12T06:26:23;103100.28;;;8.38;86.41
10460;BME280;54412;51.206;6.888;2023-02-12T06:28:49;103102.91;;;8.49;86.27
10460;BME280;54412;51.206;6.888;2023-02-12T06:31:31;103104.63;;;8.61;86.00
10460;BME280;54412;51.206;6.888;2023-02-12T06:34:00;103102.03;;;8.44;86.59
10460;BME280;54412;51.206;6.888;2023-02-12T06:36:27;103104.66;;;8.50;86.03
10460;BME280;54412;51.206;6.888;2023-02-12T06:38:53;103097.66;;;8.54;86.19
10460;BME280;54412;51.206;6.888;2023-02-12T06:41:20;103107.28;;;8.52;86.75
10460;BME280;54412;51.206;6.888;2023-02-12T06:43:46;103109.03;;;8.51;86.25
10460;BME280;54412;51.206;6.888;2023-02-12T06:46:12;103109.09;;;8.36;86.71
10460;BME280;54412;51.206;6.888;2023-02-12T06:48:38;103112.56;;;8.44;87.28
10460;BME280;54412;51.206;6.888;2023-02-12T06:51:10;103110.81;;;8.51;86.60
10460;BME280;54412;51.206;6.888;2023-02-12T06:53:37;103114.25;;;8.69;86.02
10460;BME280;54412;51.206;6.888;2023-02-12T06:56:07;103115.09;;;8.82;85.46
10460;BME280;54412;51.206;6.888;2023-02-12T06:58:37;103123.03;;;8.77;85.29
10460;BME280;54412;51.206;6.888;2023-02-12T07:01:16;103120.38;;;8.85;84.63
10460;BME280;54412;51.206;6.888;2023-02-12T07:03:47;103119.50;;;8.69;85.35
10460;BME280;54412;51.206;6.888;2023-02-12T07:06:13;103139.72;;;8.60;86.02
10460;BME280;54412;51.206;6.888;2023-02-12T07:08:39;103129.19;;;8.63;85.71
10460;BME280;54412;51.206;6.888;2023-02-12T07:11:06;103138.84;;;8.62;85.80
10460;BME280;54412;51.206;6.888;2023-02-12T07:13:32;103140.56;;;8.68;85.96
10460;BME280;54412;51.206;6.888;2023-02-12T07:16:07;103143.22;;;8.66;85.67
10460;BME280;54412;51.206;6.888;2023-02-12T07:18:34;103144.09;;;8.55;86.43
10460;BME280;54412;51.206;6.888;2023-02-12T07:21:01;103130.00;;;8.90;86.03
10460;BME280;54412;51.206;6.888;2023-02-12T07:23:27;103136.09;;;9.00;85.15
10460;BME280;54412;51.206;6.888;2023-02-12T07:26:03;103134.34;;;8.97;84.90
10460;BME280;54412;51.206;6.888;2023-02-12T07:28:30;103136.06;;;9.06;84.61
10460;BME280;54412;51.206;6.888;2023-02-12T07:30:59;103138.69;;;9.13;84.61
10460;BME280;54412;51.206;6.888;2023-02-12T07:33:25;103139.50;;;9.20;84.41
10460;BME280;54412;51.206;6.888;2023-02-12T07:35:50;103141.22;;;9.31;83.84
10460;BME280;54412;51.206;6.888;2023-02-12T07:38:16;103139.44;;;9.32;83.37
10460;BME280;54412;51.206;6.888;2023-02-12T07:40:42;103137.72;;;9.28;83.03
10460;BME280;54412;51.206;6.888;2023-02-12T07:43:08;103146.53;;;9.18;83.81
10460;BME280;54412;51.206;6.888;2023-02-12T07:45:33;103148.28;;;9.23;83.99
10460;BME280;54412;51.206;6.888;2023-02-12T07:47:59;103152.75;;;9.03;84.30
10460;BME280;54412;51.206;6.888;2023-02-12T07:50:24;103144.94;;;8.81;85.32
10460;BME280;54412;51.206;6.888;2023-02-12T07:52:50;103144.91;;;8.90;85.27
10460;BME280;54412;51.206;6.888;2023-02-12T07:55:16;103147.47;;;9.08;84.93
10460;BME280;54412;51.206;6.888;2023-02-12T07:57:42;103155.44;;;8.91;85.12
10460;BME280;54412;51.206;6.888;2023-02-12T08:00:09;103155.41;;;8.94;85.28
10460;BME280;54412;51.206;6.888;2023-02-12T08:02:35;103154.56;;;8.89;85.85
10460;BME280;54412;51.206;6.888;2023-02-12T08:05:00;103161.59;;;8.83;85.89
10460;BME280;54412;51.206;6.888;2023-02-12T08:07:26;103154.50;;;9.00;85.63
10460;BME280;54412;51.206;6.888;2023-02-12T08:09:52;103152.78;;;8.91;86.01
10460;BME280;54412;51.206;6.888;2023-02-12T08:12:18;103159.75;;;9.07;85.41
10460;BME280;54412;51.206;6.888;2023-02-12T08:14:44;103159.81;;;8.94;85.48
10460;BME280;54412;51.206;6.888;2023-02-12T08:17:10;103160.66;;;8.94;85.97
10460;BME280;54412;51.206;6.888;2023-02-12T08:19:36;103163.31;;;8.99;86.32
10460;BME280;54412;51.206;6.888;2023-02-12T08:22:02;103165.06;;;9.03;85.77
10460;BME280;54412;51.206;6.888;2023-02-12T08:24:29;103169.47;;;8.93;86.17
10460;BME280;54412;51.206;6.888;2023-02-12T08:26:55;103167.63;;;9.09;86.36
10460;BME280;54412;51.206;6.888;2023-02-12T08:29:25;103173.78;;;9.09;86.03
10460;BME280;54412;51.206;6.888;2023-02-12T08:32:01;103175.56;;;9.04;86.10
10460;BME280;54412;51.206;6.888;2023-02-12T08:34:33;103172.06;;;9.08;85.59
10460;BME280;54412;51.206;6.888;2023-02-12T08:37:00;103176.38;;;9.24;85.35
10460;BME280;54412;51.206;6.888;2023-02-12T08:39:28;103172.72;;;9.48;83.85
10460;BME280;54412;51.206;6.888;2023-02-12T08:41:56;103185.78;;;9.66;83.00
10460;BME280;54412;51.206;6.888;2023-02-12T08:44:22;103184.06;;;9.64;82.56
10460;BME280;54412;51.206;6.888;2023-02-12T08:46:50;103186.78;;;9.47;82.84
10460;BME280;54412;51.206;6.888;2023-02-12T08:49:20;103185.88;;;9.54;83.10
10460;BME280;54412;51.206;6.888;2023-02-12T08:51:50;103187.66;;;9.55;82.65
10460;BME280;54412;51.206;6.888;2023-02-12T08:54:21;103181.50;;;9.55;82.45
10460;BME280;54412;51.206;6.888;2023-02-12T08:56:48;103187.69;;;9.47;82.30
10460;BME280;54412;51.206;6.888;2023-02-12T08:59:16;103191.22;;;9.42;83.05
10460;BME280;54412;51.206;6.888;2023-02-12T09:01:42;103185.88;;;9.52;82.96
10460;BME280;54412;51.206;6.888;2023-02-12T09:04:18;103183.25;;;9.48;82.42
10460;BME280;54412;51.206;6.888;2023-02-12T09:06:46;103182.44;;;9.40;83.18
10460;BME280;54412;51.206;6.888;2023-02-12T09:09:13;103183.31;;;9.42;83.61
10460;BME280;54412;51.206;6.888;2023-02-12T09:11:40;103190.22;;;9.63;82.63
10460;BME280;54412;51.206;6.888;2023-02-12T09:14:10;103189.34;;;9.59;82.90
10460;BME280;54412;51.206;6.888;2023-02-12T09:16:37;103191.13;;;9.56;82.55
10460;BME280;54412;51.206;6.888;2023-02-12T09:19:05;103198.16;;;9.58;82.88
10460;BME280;54412;51.206;6.888;2023-02-12T09:21:31;103191.09;;;9.63;82.03
10460;BME280;54412;51.206;6.888;2023-02-12T09:23:57;103187.59;;;9.64;81.56
10460;BME280;54412;51.206;6.888;2023-02-12T09:26:24;103201.63;;;9.66;81.26
10460;BME280;54412;51.206;6.888;2023-02-12T09:28:54;103197.22;;;9.67;82.09
10460;BME280;54412;51.206;6.888;2023-02-12T09:31:24;103191.91;;;9.80;81.44
10460;BME280;54412;51.206;6.888;2023-02-12T09:33:53;103201.47;;;9.90;80.39
10460;BME280;54412;51.206;6.888;2023-02-12T09:36:19;103185.72;;;9.81;81.20
10460;BME280;54412;51.206;6.888;2023-02-12T09:38:45;103191.03;;;9.74;81.09
10460;BME280;54412;51.206;6.888;2023-02-12T09:48:02;103191.81;;;9.92;81.01
10460;BME280;54412;51.206;6.888;2023-02-12T09:53:18;103191.78;;;9.95;80.56
10460;BME280;54412;51.206;6.888;2023-02-12T09:55:46;103196.97;;;10.04;79.91
10460;BME280;54412;51.206;6.888;2023-02-12T09:58:32;103196.97;;;10.07;79.05
10460;BME280;54412;51.206;6.888;2023-02-12T10:01:02;103200.47;;;10.09;79.72
10460;BME280;54412;51.206;6.888;2023-02-12T10:03:34;103203.13;;;10.06;79.53
10460;BME280;54412;51.206;6.888;2023-02-12T10:06:10;103201.38;;;10.05;79.21
10460;BME280;54412;51.206;6.888;2023-02-12T10:12:33;103202.03;;;10.39;77.01
10460;BME280;54412;51.206;6.888;2023-02-12T10:15:34;103197.66;;;10.33;76.66
10460;BME280;54412;51.206;6.888;2023-02-12T10:21:13;103206.41;;;10.43;76.23
10460;BME280;54412;51.206;6.888;2023-02-12T10:26:37;103205.66;;;10.24;75.43
10460;BME280;54412;51.206;6.888;2023-02-12T10:29:15;103202.94;;;10.35;75.87
10460;BME280;54412;51.206;6.888;2023-02-12T10:31:49;103202.13;;;10.28;75.74
10460;BME280;54412;51.206;6.888;2023-02-12T10:34:23;103200.09;;;10.58;75.04
10460;BME280;54412;51.206;6.888;2023-02-12T10:36:56;103200.88;;;10.66;74.38
10460;BME280;54412;51.206;6.888;2023-02-12T10:39:42;103203.72;;;10.46;75.46
10460;BME280;54412;51.206;6.888;2023-02-12T10:42:42;103193.94;;;10.57;75.99
10460;BME280;54412;51.206;6.888;2023-02-12T10:45:18;103199.25;;;10.56;76.12
10460;BME280;54412;51.206;6.888;2023-02-12T10:47:50;103194.69;;;10.71;74.42
10460;BME280;54412;51.206;6.888;2023-02-12T10:53:02;103186.81;;;10.67;73.96
10460;BME280;54412;51.206;6.888;2023-02-12T10:55:34;103191.19;;;10.69;74.42
10460;BME280;54412;51.206;6.888;2023-02-12T10:58:04;103197.28;;;10.74;73.89
10460;BME280;54412;51.206;6.888;2023-02-12T11:00:42;103196.38;;;10.78;73.03
10460;BME280;54412;51.206;6.888;2023-02-12T11:05:39;103191.91;;;10.82;73.70
10460;BME280;54412;51.206;6.888;2023-02-12T11:08:05;103191.00;;;10.86;73.38
10460;BME280;54412;51.206;6.888;2023-02-12T11:10:38;103192.75;;;10.88;72.41
10460;BME280;54412;51.206;6.888;2023-02-12T11:13:06;103190.13;;;10.85;72.34
10460;BME280;54412;51.206;6.888;2023-02-12T11:15:48;103190.22;;;10.76;72.56
10460;BME280;54412;51.206;6.888;2023-02-12T11:18:26;103185.66;;;10.93;71.42
10460;BME280;54412;51.206;6.888;2023-02-12T11:21:06;103173.41;;;10.86;71.60
10460;BME280;54412;51.206;6.888;2023-02-12T11:23:42;103177.56;;;11.05;70.38
10460;BME280;54412;51.206;6.888;2023-02-12T11:31:34;103178.16;;;11.30;68.02
10460;BME280;54412;51.206;6.888;2023-02-12T11:34:15;103171.09;;;11.30;68.59
10460;BME280;54412;51.206;6.888;2023-02-12T11:36:52;103170.44;;;11.15;69.22
10460;BME280;54412;51.206;6.888;2023-02-12T11:39:32;103165.66;;;11.42;68.24
10460;BME280;54412;51.206;6.888;2023-02-12T11:42:04;103162.34;;;11.27;68.48
10460;BME280;54412;51.206;6.888;2023-02-12T11:44:38;103163.22;;;11.27;68.65
10460;BME280;54412;51.206;6.888;2023-02-12T11:47:20;103158.72;;;11.34;67.87
10460;BME280;54412;51.206;6.888;2023-02-12T11:49:57;103160.94;;;10.96;69.74
10460;BME280;54412;51.206;6.888;2023-02-12T11:52:32;103158.19;;;11.05;69.57
10460;BME280;54412;51.206;6.888;2023-02-12T11:55:05;103162.22;;;11.36;68.29
10460;BME280;54412;51.206;6.888;2023-02-12T11:57:54;103153.81;;;11.05;70.51
10460;BME280;54412;51.206;6.888;2023-02-12T12:00:38;103153.81;;;11.04;70.82
10460;BME280;54412;51.206;6.888;2023-02-12T12:03:20;103148.03;;;11.43;69.28
10460;BME280;54412;51.206;6.888;2023-02-12T12:05:58;103145.66;;;11.23;69.07
10460;BME280;54412;51.206;6.888;2023-02-12T12:08:32;103148.84;;;11.46;68.52
10460;BME280;54412;51.206;6.888;2023-02-12T12:11:20;103153.91;;;11.63;66.07
10460;BME280;54412;51.206;6.888;2023-02-12T12:13:57;103149.88;;;11.38;66.47
10460;BME280;54412;51.206;6.888;2023-02-12T12:19:51;103135.91;;;11.28;68.22
10460;BME280;54412;51.206;6.888;2023-02-12T12:25:21;103131.59;;;11.21;69.66
10460;BME280;54412;51.206;6.888;2023-02-12T12:28:15;103122.59;;;11.36;68.11
10460;BME280;54412;51.206;6.888;2023-02-12T12:31:19;103115.84;;;11.12;69.11
10460;BME280;54412;51.206;6.888;2023-02-12T12:34:15;103114.75;;;11.31;68.53
10460;BME280;54412;51.206;6.888;2023-02-12T12:43:13;103104.41;;;11.12;69.50
10460;BME280;54412;51.206;6.888;2023-02-12T12:46:02;103101.75;;;11.15;70.40
10460;BME280;54412;51.206;6.888;2023-02-12T12:52:11;103101.63;;;11.21;69.64
10460;BME280;54412;51.206;6.888;2023-02-12T12:55:21;103097.84;;;11.41;68.63
10460;BME280;54412;51.206;6.888;2023-02-12T12:58:36;103095.34;;;11.32;68.34
10460;BME280;54412;51.206;6.888;2023-02-12T13:04:58;103076.78;;;11.35;68.33
10460;BME280;54412;51.206;6.888;2023-02-12T13:10:39;103073.16;;;11.44;68.64
10460;BME280;54412;51.206;6.888;2023-02-12T13:13:19;103067.84;;;11.45;68.72
10460;BME280;54412;51.206;6.888;2023-02-12T13:15:57;103065.06;;;11.54;68.37
10460;BME280;54412;51.206;6.888;2023-02-12T13:19:07;103069.38;;;11.60;67.62
10460;BME280;54412;51.206;6.888;2023-02-12T13:22:10;103059.78;;;11.54;68.49
10460;BME280;54412;51.206;6.888;2023-02-12T13:27:56;103058.78;;;11.62;68.04
10460;BME280;54412;51.206;6.888;2023-02-12T13:30:32;103057.88;;;11.66;67.95
10460;BME280;54412;51.206;6.888;2023-02-12T13:33:09;103055.06;;;11.75;67.24
10460;BME280;54412;51.206;6.888;2023-02-12T13:35:43;103060.34;;;11.76;67.08
10460;BME280;54412;51.206;6.888;2023-02-12T13:38:20;103054.22;;;11.73;66.96
10460;BME280;54412;51.206;6.888;2023-02-12T13:40:51;103053.75;;;12.00;66.05
10460;BME280;54412;51.206;6.888;2023-02-12T13:44:06;103050.91;;;11.57;68.17
10460;BME280;54412;51.206;6.888;2023-02-12T13:58:53;103040.31;;;11.60;68.46
10460;BME280;54412;51.206;6.888;2023-02-12T14:01:43;103039.38;;;11.61;67.99
10460;BME280;54412;51.206;6.888;2023-02-12T14:09:28;103045.59;;;11.60;68.29
10460;BME280;54412;51.206;6.888;2023-02-12T14:11:57;103030.63;;;11.57;68.26
10460;BME280;54412;51.206;6.888;2023-02-12T14:14:36;103032.41;;;11.55;68.49
10460;BME280;54412;51.206;6.888;2023-02-12T14:20:06;103041.38;;;11.47;69.31
10460;BME280;54412;51.206;6.888;2023-02-12T14:25:44;103039.56;;;11.50;69.41
10460;BME280;54412;51.206;6.888;2023-02-12T14:28:26;103038.47;;;11.62;68.29
10460;BME280;54412;51.206;6.888;2023-02-12T14:33:42;103035.16;;;11.49;68.72
10460;BME280;54412;51.206;6.888;2023-02-12T14:41:32;103040.59;;;11.42;69.00
10460;BME280;54412;51.206;6.888;2023-02-12T14:49:37;103044.25;;;11.32;70.00
10460;BME280;54412;51.206;6.888;2023-02-12T14:55:05;103041.59;;;11.32;69.81
10460;BME280;54412;51.206;6.888;2023-02-12T14:57:39;103028.34;;;11.36;70.01
10460;BME280;54412;51.206;6.888;2023-02-12T15:00:22;103036.28;;;11.33;70.11
10460;BME280;54412;51.206;6.888;2023-02-12T15:02:53;103033.66;;;11.32;70.73
10460;BME280;54412;51.206;6.888;2023-02-12T15:05:25;103039.84;;;11.32;70.93
10460;BME280;54412;51.206;6.888;2023-02-12T15:07:58;103040.00;;;11.22;70.76
10460;BME280;54412;51.206;6.888;2023-02-12T15:10:41;103033.88;;;11.20;70.78
10460;BME280;54412;51.206;6.888;2023-02-12T15:13:26;103033.78;;;11.26;70.72
10460;BME280;54412;51.206;6.888;2023-02-12T15:16:18;103032.09;;;11.20;70.96
10460;BME280;54412;51.206;6.888;2023-02-12T15:19:21;103024.22;;;11.19;70.51
10460;BME280;54412;51.206;6.888;2023-02-12T15:21:51;103021.41;;;11.29;70.71
10460;BME280;54412;51.206;6.888;2023-02-12T15:24:24;103025.81;;;11.29;70.41
10460;BME280;54412;51.206;6.888;2023-02-12T15:26:55;103021.63;;;11.14;71.58
10460;BME280;54412;51.206;6.888;2023-02-12T15:29:47;103013.53;;;11.25;71.02
10460;BME280;54412;51.206;6.888;2023-02-12T15:32:26;103010.09;;;11.20;71.04